createdAt,value
2022-09-30T00:02:56.679Z,6.20
2022-09-30T00:10:22.235Z,6.00
2022-09-30T00:14:07.237Z,6.00
2022-09-30T00:17:39.870Z,6.00
2022-09-30T00:20:43.855Z,5.90
2022-09-30T00:23:55.357Z,6.10
2022-09-30T00:26:52.538Z,6.20
2022-09-30T00:30:45.264Z,6.20
2022-09-30T00:34:20.016Z,6.20
2022-09-30T00:37:23.045Z,6.10
2022-09-30T00:44:10.775Z,6.00
2022-09-30T00:47:35.534Z,6.00
2022-09-30T00:51:18.216Z,6.00
2022-09-30T00:54:18.568Z,5.90
2022-09-30T00:57:40.304Z,5.70
2022-09-30T01:00:47.556Z,5.60
2022-09-30T01:04:11.858Z,5.60
2022-09-30T01:08:10.462Z,5.60
2022-09-30T01:11:45.465Z,5.80
2022-09-30T01:15:09.646Z,5.90
2022-09-30T01:22:28.358Z,5.80
2022-09-30T01:26:09.203Z,5.90
2022-09-30T01:33:47.553Z,5.80
2022-09-30T01:37:29.339Z,5.70
2022-09-30T01:44:29.515Z,5.80
2022-09-30T01:47:46.323Z,5.90
2022-09-30T01:54:59.076Z,6.30
2022-09-30T01:58:10.682Z,6.40
2022-09-30T02:01:21.764Z,6.50
2022-09-30T02:11:41.608Z,6.30
2022-09-30T02:15:00.509Z,6.20
2022-09-30T02:22:08.642Z,6.00
2022-09-30T02:25:36.019Z,6.10
2022-09-30T02:28:52.805Z,6.10
2022-09-30T02:32:12.456Z,6.10
2022-09-30T02:39:14.434Z,6.10
2022-09-30T02:42:47.565Z,6.00
2022-09-30T02:46:07.250Z,6.00
2022-09-30T02:49:27.275Z,6.00
2022-09-30T02:52:47.103Z,6.00
2022-09-30T02:55:56.659Z,6.30
2022-09-30T02:59:56.113Z,6.10
2022-09-30T03:02:56.395Z,6.00
2022-09-30T03:06:08.174Z,6.10
2022-09-30T03:13:04.207Z,5.90
2022-09-30T03:16:58.634Z,5.80
2022-09-30T03:27:51.542Z,5.90
2022-09-30T03:31:12.621Z,5.80
2022-09-30T03:34:59.398Z,5.70
2022-09-30T03:38:20.161Z,5.60
2022-09-30T03:41:48.459Z,5.70
2022-09-30T03:45:12.318Z,5.70
2022-09-30T03:48:47.220Z,5.60
2022-09-30T03:52:38.445Z,5.70
2022-09-30T03:56:12.996Z,5.80
2022-09-30T03:59:48.401Z,5.80
2022-09-30T04:06:39.309Z,5.80
2022-09-30T04:09:52.263Z,5.70
2022-09-30T04:17:19.195Z,5.50
2022-09-30T04:20:29.354Z,5.40
2022-09-30T04:23:35.952Z,5.20
2022-09-30T04:31:15.541Z,5.30
2022-09-30T04:37:39.675Z,5.20
2022-09-30T04:41:06.702Z,5.10
2022-09-30T04:44:21.365Z,5.30
2022-09-30T04:47:33.938Z,5.30
2022-09-30T04:51:13.537Z,5.50
2022-09-30T04:54:25.297Z,5.40
2022-09-30T04:57:42.651Z,5.30
2022-09-30T05:01:01.672Z,5.40
2022-09-30T05:04:16.611Z,5.70
2022-09-30T05:08:09.318Z,5.60
2022-09-30T05:11:22.933Z,5.50
2022-09-30T05:14:51.427Z,5.60
2022-09-30T05:18:22.116Z,5.50
2022-09-30T05:21:25.535Z,5.50
2022-09-30T05:25:14.162Z,5.60
2022-09-30T05:31:40.565Z,5.70
2022-09-30T05:38:25.152Z,5.60
2022-09-30T05:42:23.132Z,5.80
2022-09-30T05:45:35.395Z,5.70
2022-09-30T05:48:45.847Z,5.60
2022-09-30T05:51:57.415Z,5.60
2022-09-30T05:55:09.631Z,5.50
2022-09-30T05:58:22.113Z,5.40
2022-09-30T06:01:30.076Z,5.60
2022-09-30T06:04:39.472Z,5.70
2022-09-30T06:07:58.328Z,5.80
2022-09-30T06:11:07.814Z,6.10
2022-09-30T06:14:19.267Z,6.10
2022-09-30T06:25:16.269Z,6.60
2022-09-30T06:28:32.000Z,6.80
2022-09-30T06:31:40.515Z,7.00
2022-09-30T06:35:00.683Z,7.30
2022-09-30T06:38:26.722Z,7.60
2022-09-30T06:41:52.025Z,8.10
2022-09-30T06:45:00.633Z,8.30
2022-09-30T06:48:39.963Z,8.60
2022-09-30T06:52:27.883Z,8.80
2022-09-30T06:56:17.782Z,8.90
2022-09-30T07:00:01.736Z,9.20
2022-09-30T07:09:59.923Z,9.70
2022-09-30T07:13:49.537Z,9.90
2022-09-30T07:17:06.146Z,10.10
2022-09-30T07:23:56.749Z,10.30
2022-09-30T07:29:15.348Z,10.50
2022-09-30T07:31:43.740Z,10.60
2022-09-30T07:34:12.069Z,10.80
2022-09-30T07:36:45.213Z,11.00
2022-09-30T07:39:13.432Z,11.10
2022-09-30T07:41:44.285Z,11.20
2022-09-30T07:44:15.422Z,11.30
2022-09-30T07:46:45.187Z,11.50
2022-09-30T07:49:26.202Z,11.80
2022-09-30T07:51:58.685Z,11.90
2022-09-30T07:54:29.312Z,12.00
2022-09-30T07:57:09.643Z,12.10
2022-09-30T07:59:44.799Z,12.20
2022-09-30T08:02:16.998Z,12.40
2022-09-30T08:04:45.597Z,12.80
2022-09-30T08:07:15.407Z,12.90
2022-09-30T08:09:43.773Z,12.90
2022-09-30T08:12:12.088Z,13.30
2022-09-30T08:14:41.885Z,13.30
2022-09-30T08:17:10.080Z,13.50
2022-09-30T08:19:41.428Z,13.70
2022-09-30T08:36:41.069Z,14.30
2022-09-30T08:40:04.713Z,14.50
2022-09-30T08:43:55.874Z,14.70
2022-09-30T08:47:09.101Z,14.80
2022-09-30T08:57:20.664Z,14.80
2022-09-30T09:00:26.749Z,14.80
2022-09-30T09:03:34.996Z,14.90
2022-09-30T09:10:50.262Z,15.20
2022-09-30T09:14:14.192Z,15.40
2022-09-30T09:17:34.622Z,15.70
2022-09-30T09:20:41.909Z,15.90
2022-09-30T09:23:55.843Z,16.20
2022-09-30T09:26:49.342Z,16.30
2022-09-30T09:30:56.365Z,16.40
2022-09-30T09:34:20.173Z,16.50
2022-09-30T09:37:58.376Z,16.80
2022-09-30T09:41:05.478Z,16.80
2022-09-30T09:44:37.086Z,16.90
2022-09-30T09:48:00.716Z,17.00
2022-09-30T09:51:12.570Z,17.00
2022-09-30T09:54:22.802Z,17.00
2022-09-30T09:57:53.082Z,17.10
2022-09-30T10:01:22.507Z,17.30
2022-09-30T10:04:52.319Z,17.50
2022-09-30T10:08:25.697Z,17.80
2022-09-30T10:11:36.422Z,17.80
2022-09-30T10:14:50.054Z,18.10
2022-09-30T10:18:03.217Z,18.10
2022-09-30T10:22:30.291Z,18.20
2022-09-30T10:25:03.646Z,18.60
2022-09-30T10:31:37.518Z,18.50
2022-09-30T10:35:14.363Z,18.60
2022-09-30T10:38:44.018Z,18.80
2022-09-30T10:49:07.153Z,19.30
2022-09-30T10:52:35.484Z,19.50
2022-09-30T10:56:02.039Z,19.60
2022-09-30T10:59:29.248Z,20.00
2022-09-30T11:10:14.384Z,19.60
2022-09-30T11:13:59.029Z,19.80
2022-09-30T11:17:36.563Z,19.80
2022-09-30T11:20:56.163Z,19.70
2022-09-30T11:24:01.419Z,19.70
2022-09-30T11:27:17.355Z,19.70
2022-09-30T11:45:34.419Z,19.50
2022-09-30T11:48:35.120Z,19.30
2022-09-30T11:51:19.729Z,18.80
2022-09-30T11:54:04.532Z,18.80
2022-09-30T11:56:42.683Z,19.00
2022-09-30T11:59:19.870Z,19.40
2022-09-30T12:01:51.221Z,19.40
2022-09-30T12:04:23.456Z,19.00
2022-09-30T12:06:58.979Z,18.50
2022-09-30T12:09:30.244Z,18.80
2022-09-30T12:12:03.186Z,19.00
2022-09-30T12:14:37.011Z,19.60
2022-09-30T12:17:13.213Z,20.40
2022-09-30T12:19:46.708Z,20.30
2022-09-30T12:22:24.494Z,20.00
2022-09-30T12:24:52.808Z,20.00
2022-09-30T12:27:26.422Z,20.10
2022-09-30T12:30:21.390Z,20.30
2022-09-30T12:33:26.196Z,20.20
2022-09-30T12:36:21.811Z,20.00
2022-09-30T12:39:23.448Z,19.80
2022-09-30T12:42:07.248Z,20.00
2022-09-30T12:45:10.651Z,20.20
2022-09-30T12:47:46.150Z,19.90
2022-09-30T12:50:17.933Z,19.90
2022-09-30T12:52:46.377Z,19.70
2022-09-30T12:55:25.595Z,19.60
2022-09-30T12:57:55.160Z,19.60
2022-09-30T13:00:25.012Z,19.50
2022-09-30T13:02:58.086Z,19.60
2022-09-30T13:05:54.078Z,19.60
2022-09-30T13:08:48.466Z,19.50
2022-09-30T13:11:39.076Z,20.00
2022-09-30T13:14:33.729Z,20.00
2022-09-30T13:17:26.494Z,19.90
2022-09-30T13:19:57.554Z,19.90
2022-09-30T13:22:59.231Z,20.00
2022-09-30T13:25:51.897Z,19.80
2022-09-30T13:28:38.057Z,19.50
2022-09-30T13:31:24.948Z,18.80
2022-09-30T13:34:11.166Z,19.20
2022-09-30T13:36:57.825Z,19.80
2022-09-30T13:39:28.377Z,19.90
2022-09-30T13:42:04.562Z,19.90
2022-09-30T13:44:45.852Z,20.10
2022-09-30T13:47:21.240Z,20.10
2022-09-30T13:49:56.393Z,20.00
2022-09-30T13:52:29.049Z,20.00
2022-09-30T13:55:04.012Z,20.30
2022-09-30T13:57:49.660Z,20.20
2022-09-30T14:00:21.520Z,19.70
2022-09-30T14:03:27.721Z,19.80
2022-09-30T14:06:05.267Z,20.20
2022-09-30T14:09:02.629Z,20.20
2022-09-30T14:12:03.755Z,20.00
2022-09-30T14:15:12.891Z,19.60
2022-09-30T14:17:55.881Z,19.10
2022-09-30T14:20:40.846Z,19.30
2022-09-30T14:23:15.437Z,19.10
2022-09-30T14:25:52.472Z,19.10
2022-09-30T14:28:30.633Z,19.50
2022-09-30T14:31:09.348Z,19.40
2022-09-30T14:33:39.673Z,19.00
2022-09-30T14:36:14.818Z,18.60
2022-09-30T14:38:47.314Z,18.40
2022-09-30T14:41:21.426Z,18.30
2022-09-30T14:43:53.901Z,18.20
2022-09-30T14:46:31.137Z,18.20
2022-09-30T14:49:04.651Z,18.20
2022-09-30T14:51:43.535Z,18.40
2022-09-30T14:54:19.823Z,18.50
2022-09-30T14:56:48.485Z,18.40
2022-09-30T14:59:22.114Z,18.50
2022-09-30T15:01:55.454Z,18.40
2022-09-30T15:04:28.866Z,18.20
2022-09-30T15:07:17.988Z,17.90
2022-09-30T15:13:58.818Z,17.70
2022-09-30T15:17:20.862Z,17.80
2022-09-30T15:19:50.909Z,17.80
2022-09-30T15:22:59.821Z,17.70
2022-09-30T15:25:37.308Z,17.60
2022-09-30T15:28:09.009Z,17.40
2022-09-30T15:30:38.483Z,17.30
2022-09-30T15:33:07.569Z,17.30
2022-09-30T15:35:37.323Z,17.20
2022-09-30T15:38:11.547Z,17.10
2022-09-30T15:40:50.040Z,17.00
2022-09-30T15:43:40.281Z,16.90
2022-09-30T15:46:19.874Z,16.80
2022-09-30T15:48:48.726Z,16.60
2022-09-30T15:51:33.247Z,16.60
2022-09-30T15:54:03.667Z,16.50
2022-09-30T15:56:36.215Z,16.40
2022-09-30T15:59:06.658Z,16.40
2022-09-30T16:01:39.089Z,16.30
2022-09-30T16:04:14.368Z,16.30
2022-09-30T16:06:49.437Z,16.30
2022-09-30T16:09:24.634Z,16.30
2022-09-30T16:12:05.324Z,16.30
2022-09-30T16:14:37.335Z,16.30
2022-09-30T16:17:07.860Z,16.30
2022-09-30T16:19:36.269Z,16.20
2022-09-30T16:23:11.458Z,16.10
2022-09-30T16:26:32.084Z,16.00
2022-09-30T16:29:48.695Z,16.00
2022-09-30T16:33:07.004Z,15.90
2022-09-30T16:39:37.413Z,15.80
2022-09-30T16:42:51.672Z,15.70
2022-09-30T16:50:05.322Z,15.60
2022-09-30T16:53:25.584Z,15.60
2022-09-30T16:57:28.385Z,15.50
2022-09-30T17:01:30.137Z,15.50
2022-09-30T17:05:06.239Z,15.40
2022-09-30T17:08:32.899Z,15.20
2022-09-30T17:11:53.622Z,15.20
2022-09-30T17:15:02.158Z,15.00
2022-09-30T17:22:28.895Z,14.90
2022-09-30T17:25:56.236Z,14.90
2022-09-30T17:29:33.024Z,14.70
2022-09-30T17:36:10.404Z,14.70
2022-09-30T17:39:42.180Z,14.70
2022-09-30T17:43:17.263Z,14.70
2022-09-30T17:46:10.957Z,14.80
2022-09-30T17:49:24.187Z,14.80
2022-09-30T17:52:39.033Z,14.70
2022-09-30T17:56:38.804Z,14.70
2022-09-30T17:59:39.618Z,14.80
2022-09-30T18:03:01.673Z,14.70
2022-09-30T18:06:33.875Z,14.70
2022-09-30T18:09:57.489Z,14.70
2022-09-30T18:13:15.177Z,14.60
2022-09-30T18:16:41.700Z,14.60
2022-09-30T18:19:51.568Z,14.60
2022-09-30T18:23:05.128Z,14.60
2022-09-30T18:26:33.162Z,14.60
2022-09-30T18:29:44.066Z,14.60
2022-09-30T18:33:13.987Z,14.60
2022-09-30T18:39:41.277Z,14.60
2022-09-30T18:46:18.649Z,14.60
2022-09-30T18:49:39.844Z,14.60
2022-09-30T18:59:47.954Z,14.60
2022-09-30T19:02:50.789Z,14.70
2022-09-30T19:06:56.143Z,14.70
2022-09-30T19:10:53.061Z,14.60
2022-09-30T19:14:14.297Z,14.60
2022-09-30T19:17:36.360Z,14.60
2022-09-30T19:20:56.802Z,14.60
2022-09-30T19:27:15.399Z,14.60
2022-09-30T19:31:08.638Z,14.60
2022-09-30T19:34:28.348Z,14.70
2022-09-30T19:38:37.343Z,14.70
2022-09-30T19:41:47.437Z,14.70
2022-09-30T19:45:13.632Z,14.70
2022-09-30T19:48:59.384Z,14.70
2022-09-30T19:52:34.691Z,14.70
2022-09-30T19:55:50.606Z,14.70
2022-09-30T19:58:52.157Z,14.60
2022-09-30T20:02:29.863Z,14.40
2022-09-30T20:05:38.493Z,14.20
2022-09-30T20:08:06.739Z,13.90
2022-09-30T20:10:34.922Z,13.60
2022-09-30T20:13:03.435Z,13.40
2022-09-30T20:15:49.021Z,13.20
2022-09-30T20:18:20.166Z,13.00
2022-09-30T20:20:50.495Z,12.80
2022-09-30T20:23:19.331Z,12.70
2022-09-30T20:26:18.616Z,12.60
2022-09-30T20:29:31.849Z,12.60
2022-09-30T20:32:27.219Z,12.50
2022-09-30T20:34:57.890Z,12.50
2022-09-30T20:37:27.588Z,12.40
2022-09-30T20:40:03.885Z,12.40
2022-09-30T20:42:40.216Z,12.30
2022-09-30T20:45:18.220Z,12.20
2022-09-30T20:47:48.833Z,12.20
2022-09-30T20:50:57.170Z,12.20
2022-09-30T20:53:31.837Z,12.20
2022-09-30T20:56:08.230Z,12.10
2022-09-30T20:58:49.372Z,12.10
2022-09-30T21:01:20.083Z,12.10
2022-09-30T21:03:57.906Z,12.00
2022-09-30T21:06:27.910Z,12.00
2022-09-30T21:09:37.359Z,12.00
2022-09-30T21:12:17.890Z,12.00
2022-09-30T21:14:46.142Z,12.00
2022-09-30T21:17:14.308Z,11.90
2022-09-30T21:19:42.796Z,11.90
2022-09-30T21:22:11.269Z,11.90
2022-09-30T21:24:40.897Z,11.90
2022-09-30T21:27:09.794Z,11.90
2022-09-30T21:29:38.005Z,11.90
2022-09-30T21:32:06.356Z,11.90
2022-09-30T21:34:34.858Z,11.90
2022-09-30T21:37:03.090Z,11.90
2022-09-30T21:39:31.329Z,11.90
2022-09-30T21:42:00.976Z,11.80
2022-09-30T21:44:29.165Z,11.80
2022-09-30T21:46:58.441Z,11.80
2022-09-30T21:49:26.629Z,11.80
2022-09-30T21:51:55.346Z,11.80
2022-09-30T21:54:23.789Z,11.80
2022-09-30T21:56:52.199Z,11.80
2022-09-30T22:02:52.316Z,11.70
2022-09-30T22:05:22.254Z,11.80
2022-09-30T22:07:57.657Z,11.70
2022-09-30T22:10:30.227Z,11.70
2022-09-30T22:12:58.450Z,11.70
2022-09-30T22:15:28.254Z,11.80
2022-09-30T22:17:56.417Z,11.80
2022-09-30T22:20:24.623Z,11.70
2022-09-30T22:22:52.820Z,11.70
2022-09-30T22:25:22.386Z,11.80
2022-09-30T22:27:51.848Z,11.80
2022-09-30T22:30:20.986Z,11.80
2022-09-30T22:33:11.089Z,11.70
2022-09-30T22:35:56.800Z,11.80
2022-09-30T22:38:25.067Z,11.80
2022-09-30T22:40:55.829Z,11.80
2022-09-30T22:46:36.230Z,11.70
2022-09-30T22:50:14.457Z,11.80
2022-09-30T22:53:31.216Z,11.70
2022-09-30T22:56:54.996Z,11.70
2022-09-30T23:03:44.018Z,11.80
2022-09-30T23:07:09.099Z,11.80
2022-09-30T23:10:16.303Z,11.80
2022-09-30T23:13:32.065Z,11.80
2022-09-30T23:23:58.580Z,11.80
2022-09-30T23:26:48.039Z,11.80
2022-09-30T23:30:00.970Z,11.80
2022-09-30T23:33:03.473Z,11.80
2022-09-30T23:36:19.431Z,11.80
2022-09-30T23:39:28.331Z,11.80
2022-09-30T23:43:01.313Z,11.80
2022-09-30T23:47:07.342Z,11.80
2022-09-30T23:49:36.978Z,11.80
2022-09-30T23:52:10.541Z,11.80
2022-09-30T23:54:41.237Z,11.80
2022-09-30T23:57:10.647Z,11.70
2022-09-30T23:59:39.054Z,11.70
